createdAt,value
2024-01-30T00:01:05.310Z,68.08
2024-01-30T00:03:32.099Z,68.26
2024-01-30T00:05:59.902Z,68.14
2024-01-30T00:08:27.652Z,68.37
2024-01-30T00:10:54.508Z,68.69
2024-01-30T00:13:21.510Z,69.84
2024-01-30T00:15:48.386Z,71.56
2024-01-30T00:18:15.343Z,72.60
2024-01-30T00:20:42.204Z,72.02
2024-01-30T00:23:08.881Z,71.50
2024-01-30T00:25:35.888Z,71.30
2024-01-30T00:28:03.267Z,71.04
2024-01-30T00:30:29.999Z,70.66
2024-01-30T00:32:58.050Z,70.80
2024-01-30T00:35:24.744Z,70.43
2024-01-30T00:37:51.792Z,70.32
2024-01-30T00:40:19.151Z,70.68
2024-01-30T00:42:46.809Z,70.43
2024-01-30T00:45:15.667Z,70.25
2024-01-30T00:47:43.026Z,70.79
2024-01-30T00:50:10.431Z,70.74
2024-01-30T00:52:37.246Z,70.45
2024-01-30T00:55:04.743Z,70.09
2024-01-30T00:57:31.508Z,69.88
2024-01-30T00:59:58.680Z,70.20
2024-01-30T01:02:25.390Z,70.00
2024-01-30T01:04:52.106Z,70.15
2024-01-30T01:07:18.901Z,70.37
2024-01-30T01:09:45.763Z,69.89
2024-01-30T01:12:12.557Z,69.74
2024-01-30T01:14:39.292Z,69.69
2024-01-30T01:17:06.293Z,70.05
2024-01-30T01:19:33.192Z,70.38
2024-01-30T01:22:00.018Z,70.65
2024-01-30T01:24:26.952Z,70.96
2024-01-30T01:26:53.922Z,70.97
2024-01-30T01:29:22.069Z,70.69
2024-01-30T01:31:50.091Z,71.40
2024-01-30T01:34:17.278Z,71.55
2024-01-30T01:36:44.162Z,71.29
2024-01-30T01:39:11.994Z,71.05
2024-01-30T01:41:38.716Z,71.23
2024-01-30T01:44:06.531Z,71.48
2024-01-30T01:46:34.922Z,71.41
2024-01-30T01:49:04.050Z,71.87
2024-01-30T01:51:33.110Z,71.56
2024-01-30T01:54:03.150Z,71.20
2024-01-30T01:56:31.039Z,71.45
2024-01-30T01:59:01.540Z,71.91
2024-01-30T02:01:29.306Z,73.03
2024-01-30T02:03:57.081Z,72.28
2024-01-30T02:06:24.186Z,72.45
2024-01-30T02:08:51.254Z,73.69
2024-01-30T02:11:18.269Z,73.24
2024-01-30T02:13:45.087Z,73.54
2024-01-30T02:16:12.123Z,73.86
2024-01-30T02:18:43.385Z,73.76
2024-01-30T02:21:10.281Z,73.62
2024-01-30T02:23:37.798Z,73.44
2024-01-30T02:26:04.738Z,74.55
2024-01-30T02:28:31.522Z,73.96
2024-01-30T02:30:58.211Z,74.42
2024-01-30T02:33:24.972Z,74.24
2024-01-30T02:35:51.625Z,74.90
2024-01-30T02:38:18.514Z,75.68
2024-01-30T02:40:45.137Z,75.37
2024-01-30T02:43:11.956Z,75.22
2024-01-30T02:45:38.764Z,74.99
2024-01-30T02:48:07.645Z,74.81
2024-01-30T02:50:34.410Z,74.38
2024-01-30T02:53:01.257Z,74.40
2024-01-30T02:55:28.204Z,74.47
2024-01-30T02:57:55.220Z,74.33
2024-01-30T03:00:22.124Z,74.00
2024-01-30T03:02:49.017Z,73.85
2024-01-30T03:05:15.669Z,73.97
2024-01-30T03:07:42.613Z,74.26
2024-01-30T03:10:09.629Z,74.11
2024-01-30T03:12:36.583Z,73.84
2024-01-30T03:15:03.458Z,73.60
2024-01-30T03:17:30.163Z,73.64
2024-01-30T03:19:57.014Z,73.64
2024-01-30T03:22:23.898Z,74.12
2024-01-30T03:24:50.767Z,74.17
2024-01-30T03:27:17.609Z,74.38
2024-01-30T03:29:44.389Z,74.33
2024-01-30T03:32:11.196Z,74.63
2024-01-30T03:34:38.140Z,74.45
2024-01-30T03:37:05.022Z,74.42
2024-01-30T03:39:31.929Z,74.37
2024-01-30T03:41:58.716Z,74.62
2024-01-30T03:44:25.575Z,74.68
2024-01-30T03:46:52.381Z,74.65
2024-01-30T03:49:19.329Z,74.20
2024-01-30T03:51:46.288Z,74.50
2024-01-30T03:54:13.070Z,74.82
2024-01-30T03:56:39.888Z,75.55
2024-01-30T03:59:06.683Z,76.67
2024-01-30T04:01:33.667Z,76.71
2024-01-30T04:04:00.606Z,76.42
2024-01-30T04:06:27.813Z,75.67
2024-01-30T04:08:54.534Z,75.97
2024-01-30T04:11:21.695Z,75.75
2024-01-30T04:13:49.727Z,75.13
2024-01-30T04:16:25.911Z,75.18
2024-01-30T04:18:53.661Z,74.90
2024-01-30T04:21:22.601Z,75.12
2024-01-30T04:23:50.328Z,74.80
2024-01-30T04:26:17.083Z,74.62
2024-01-30T04:28:45.753Z,74.80
2024-01-30T04:31:13.072Z,75.79
2024-01-30T04:33:40.003Z,77.84
2024-01-30T04:36:11.707Z,80.08
2024-01-30T04:38:39.874Z,78.87
2024-01-30T04:41:06.906Z,78.49
2024-01-30T04:43:34.790Z,78.10
2024-01-30T04:46:01.855Z,79.06
2024-01-30T04:48:28.841Z,78.80
2024-01-30T04:50:57.370Z,78.26
2024-01-30T04:53:24.166Z,77.71
2024-01-30T04:55:50.920Z,77.46
2024-01-30T04:58:17.753Z,77.19
2024-01-30T05:00:44.762Z,80.31
2024-01-30T05:03:15.475Z,81.37
2024-01-30T05:05:42.404Z,81.83
2024-01-30T05:08:12.381Z,83.73
2024-01-30T05:10:39.559Z,83.09
2024-01-30T05:13:06.938Z,82.16
2024-01-30T05:15:33.827Z,83.66
2024-01-30T05:18:01.538Z,84.44
2024-01-30T05:20:31.275Z,84.79
2024-01-30T05:22:58.029Z,84.16
2024-01-30T05:25:25.726Z,83.97
2024-01-30T05:27:52.603Z,86.07
2024-01-30T05:30:19.365Z,85.42
2024-01-30T05:32:46.406Z,85.83
2024-01-30T05:35:13.453Z,86.19
2024-01-30T05:37:40.196Z,86.96
2024-01-30T05:40:07.996Z,86.45
2024-01-30T05:42:34.688Z,85.67
2024-01-30T05:45:01.533Z,85.37
2024-01-30T05:47:28.224Z,84.23
2024-01-30T05:49:55.053Z,83.41
2024-01-30T05:52:24.833Z,83.05
2024-01-30T05:54:51.574Z,83.60
2024-01-30T05:57:18.633Z,83.92
2024-01-30T05:59:46.136Z,83.76
2024-01-30T06:02:13.105Z,84.08
2024-01-30T06:04:40.123Z,83.37
2024-01-30T06:07:07.966Z,82.61
2024-01-30T06:09:34.783Z,82.41
2024-01-30T06:12:01.465Z,82.04
2024-01-30T06:14:28.618Z,81.88
2024-01-30T06:16:55.317Z,81.31
2024-01-30T06:19:22.120Z,80.94
2024-01-30T06:21:49.098Z,82.11
2024-01-30T06:24:15.911Z,82.53
2024-01-30T06:26:42.624Z,84.06
2024-01-30T06:29:09.617Z,88.28
2024-01-30T06:31:42.988Z,88.81
2024-01-30T06:34:10.843Z,90.79
2024-01-30T06:36:37.729Z,91.61
2024-01-30T06:39:05.206Z,93.59
2024-01-30T06:41:31.951Z,94.06
2024-01-30T06:43:58.656Z,94.17
2024-01-30T06:46:25.525Z,94.05
2024-01-30T06:48:52.531Z,94.68
2024-01-30T06:51:19.318Z,95.59
2024-01-30T06:53:46.170Z,94.39
2024-01-30T06:56:12.949Z,92.62
2024-01-30T06:58:40.123Z,92.67
2024-01-30T07:01:07.842Z,93.50
2024-01-30T07:03:34.662Z,94.20
2024-01-30T07:06:01.343Z,93.02
2024-01-30T07:08:28.151Z,91.60
2024-01-30T07:10:59.191Z,90.36
2024-01-30T07:13:29.673Z,92.54
2024-01-30T07:15:56.595Z,91.44
2024-01-30T07:18:23.351Z,90.92
2024-01-30T07:20:50.716Z,90.20
2024-01-30T07:23:18.944Z,90.66
2024-01-30T07:25:48.321Z,89.85
2024-01-30T07:28:18.149Z,88.65
2024-01-30T07:30:44.948Z,87.98
2024-01-30T07:33:11.766Z,87.98
2024-01-30T07:35:39.235Z,89.01
2024-01-30T07:38:06.348Z,88.23
2024-01-30T07:40:34.502Z,87.60
2024-01-30T07:43:02.396Z,87.28
2024-01-30T07:45:33.780Z,86.31
2024-01-30T07:48:04.066Z,85.32
2024-01-30T07:50:31.630Z,85.20
2024-01-30T07:52:58.382Z,85.21
2024-01-30T07:55:33.265Z,84.41
2024-01-30T07:58:00.614Z,83.77
2024-01-30T08:00:27.815Z,83.17
2024-01-30T08:02:56.712Z,86.43
2024-01-30T08:05:25.090Z,88.60
2024-01-30T08:07:52.792Z,91.85
2024-01-30T08:10:20.414Z,93.14
2024-01-30T08:12:47.633Z,92.81
2024-01-30T08:15:14.817Z,93.92
2024-01-30T08:17:41.590Z,94.31
2024-01-30T08:20:09.866Z,92.96
2024-01-30T08:22:36.999Z,92.28
2024-01-30T08:25:04.186Z,89.36
2024-01-30T08:27:30.937Z,87.53
2024-01-30T08:29:57.656Z,86.05
2024-01-30T08:32:25.129Z,86.29
2024-01-30T08:34:52.160Z,85.64
2024-01-30T08:37:19.133Z,84.05
2024-01-30T08:39:45.910Z,82.30
2024-01-30T08:42:12.869Z,82.34
2024-01-30T08:44:39.967Z,81.35
2024-01-30T08:47:07.424Z,81.70
2024-01-30T08:49:34.414Z,80.24
2024-01-30T08:52:01.324Z,78.30
2024-01-30T08:54:28.270Z,76.42
2024-01-30T08:56:56.724Z,75.90
2024-01-30T08:59:23.548Z,77.55
2024-01-30T09:01:59.791Z,77.06
2024-01-30T09:04:30.875Z,75.62
2024-01-30T09:06:57.681Z,75.08
2024-01-30T09:09:24.603Z,75.52
2024-01-30T09:11:51.286Z,74.98
2024-01-30T09:14:18.174Z,76.24
2024-01-30T09:16:44.853Z,77.02
2024-01-30T09:19:11.698Z,77.30
2024-01-30T09:21:38.817Z,76.55
2024-01-30T09:24:05.954Z,75.59
2024-01-30T09:26:32.704Z,74.14
2024-01-30T09:28:59.369Z,73.69
2024-01-30T09:31:26.324Z,74.23
2024-01-30T09:33:55.373Z,74.71
2024-01-30T09:36:23.173Z,74.31
2024-01-30T09:38:49.885Z,75.26
2024-01-30T09:41:17.071Z,73.57
2024-01-30T09:43:50.443Z,72.26
2024-01-30T09:46:19.307Z,71.37
2024-01-30T09:48:49.367Z,69.76
2024-01-30T09:51:17.823Z,70.14
2024-01-30T09:53:47.408Z,70.59
2024-01-30T09:56:15.343Z,71.23
2024-01-30T09:58:43.271Z,69.58
2024-01-30T10:01:10.107Z,69.18
2024-01-30T10:03:37.290Z,69.10
2024-01-30T10:06:04.471Z,72.26
2024-01-30T10:08:31.299Z,71.57
2024-01-30T10:10:58.341Z,70.31
2024-01-30T10:13:26.750Z,72.10
2024-01-30T10:15:54.856Z,70.51
2024-01-30T10:18:21.796Z,69.88
2024-01-30T10:20:48.791Z,72.31
2024-01-30T10:23:15.807Z,71.20
2024-01-30T10:25:43.078Z,72.58
2024-01-30T10:28:10.793Z,74.59
2024-01-30T10:30:37.612Z,72.32
2024-01-30T10:33:05.126Z,70.63
2024-01-30T10:35:32.073Z,69.88
2024-01-30T10:37:59.982Z,68.97
2024-01-30T10:40:30.230Z,67.18
2024-01-30T10:42:57.791Z,65.71
2024-01-30T10:45:29.310Z,64.77
2024-01-30T10:47:59.935Z,66.31
2024-01-30T10:50:28.145Z,66.27
2024-01-30T10:52:56.398Z,67.67
2024-01-30T10:55:24.283Z,67.25
2024-01-30T10:57:51.911Z,65.90
2024-01-30T11:00:23.774Z,65.05
2024-01-30T11:02:51.075Z,64.44
2024-01-30T11:05:32.720Z,63.01
2024-01-30T11:08:00.650Z,62.25
2024-01-30T11:10:27.495Z,62.23
2024-01-30T11:12:54.508Z,61.86
2024-01-30T11:15:23.007Z,61.32
2024-01-30T11:17:49.922Z,61.26
2024-01-30T11:20:33.761Z,60.54
2024-01-30T11:23:01.175Z,60.43
2024-01-30T11:25:28.438Z,60.74
2024-01-30T11:27:57.247Z,60.45
2024-01-30T11:30:29.516Z,63.37
2024-01-30T11:33:12.597Z,62.77
2024-01-30T11:35:44.144Z,60.82
2024-01-30T11:38:15.457Z,59.09
2024-01-30T11:40:42.780Z,57.91
2024-01-30T11:43:10.843Z,56.61
2024-01-30T11:45:38.435Z,54.06
2024-01-30T11:48:06.175Z,54.75
2024-01-30T11:50:36.630Z,57.08
2024-01-30T11:53:04.234Z,58.82
2024-01-30T11:55:34.609Z,57.08
2024-01-30T11:58:03.125Z,54.97
2024-01-30T12:00:32.283Z,55.25
2024-01-30T12:02:59.553Z,53.58
2024-01-30T12:05:27.167Z,52.94
2024-01-30T12:07:54.498Z,52.72
2024-01-30T12:10:22.368Z,55.38
2024-01-30T12:12:51.494Z,56.93
2024-01-30T12:15:22.922Z,54.35
2024-01-30T12:17:49.810Z,53.11
2024-01-30T12:20:20.025Z,52.24
2024-01-30T12:22:51.585Z,54.76
2024-01-30T12:25:20.479Z,56.87
2024-01-30T12:27:52.743Z,56.18
2024-01-30T12:30:21.776Z,55.93
2024-01-30T12:32:52.156Z,57.32
2024-01-30T12:35:22.068Z,57.03
2024-01-30T12:37:50.763Z,57.01
2024-01-30T12:40:18.698Z,55.22
2024-01-30T12:42:50.628Z,56.76
2024-01-30T12:45:23.058Z,54.96
2024-01-30T12:47:50.454Z,54.90
2024-01-30T12:50:20.755Z,52.13
2024-01-30T12:52:49.706Z,53.24
2024-01-30T12:55:17.479Z,52.75
2024-01-30T12:57:44.373Z,51.81
2024-01-30T13:00:11.555Z,50.25
2024-01-30T13:02:38.652Z,47.26
2024-01-30T13:05:06.240Z,46.00
2024-01-30T13:07:33.102Z,44.03
2024-01-30T13:10:04.713Z,43.49
2024-01-30T13:12:33.735Z,42.38
2024-01-30T13:15:05.588Z,42.47
2024-01-30T13:17:33.258Z,41.48
2024-01-30T13:20:07.283Z,43.18
2024-01-30T13:22:40.023Z,45.77
2024-01-30T13:25:08.773Z,46.48
2024-01-30T13:27:36.758Z,45.99
2024-01-30T13:30:03.950Z,45.59
2024-01-30T13:32:30.836Z,43.42
2024-01-30T13:34:57.698Z,44.86
2024-01-30T13:37:24.837Z,44.92
2024-01-30T13:39:51.699Z,44.82
2024-01-30T13:42:18.635Z,46.04
2024-01-30T13:44:45.588Z,45.85
2024-01-30T13:47:12.533Z,45.54
2024-01-30T13:49:39.382Z,45.55
2024-01-30T13:52:06.593Z,45.79
2024-01-30T13:54:33.296Z,45.59
2024-01-30T13:57:00.435Z,45.78
2024-01-30T13:59:27.199Z,45.39
2024-01-30T14:01:54.022Z,45.11
2024-01-30T14:04:20.937Z,46.71
2024-01-30T14:06:53.775Z,48.19
2024-01-30T14:09:27.604Z,48.95
2024-01-30T14:11:54.522Z,49.89
2024-01-30T14:14:21.286Z,50.68
2024-01-30T14:16:48.032Z,51.48
2024-01-30T14:19:15.032Z,51.83
2024-01-30T14:21:41.962Z,52.78
2024-01-30T14:24:09.846Z,52.52
2024-01-30T14:26:36.653Z,52.91
2024-01-30T14:29:03.606Z,54.34
2024-01-30T14:31:30.445Z,54.14
2024-01-30T14:33:57.312Z,53.85
2024-01-30T14:36:29.008Z,54.83
2024-01-30T14:38:56.722Z,54.10
2024-01-30T14:41:23.759Z,52.74
2024-01-30T14:43:50.798Z,52.16
2024-01-30T14:46:17.769Z,52.14
2024-01-30T14:48:45.168Z,53.32
2024-01-30T14:51:12.016Z,53.57
2024-01-30T14:53:38.915Z,53.72
2024-01-30T14:56:06.302Z,53.81
2024-01-30T14:58:33.441Z,54.19
2024-01-30T15:01:00.448Z,53.92
2024-01-30T15:03:29.984Z,53.00
2024-01-30T15:05:57.002Z,53.18
2024-01-30T15:08:27.024Z,52.53
2024-01-30T15:10:55.028Z,53.01
2024-01-30T15:13:22.169Z,52.51
2024-01-30T15:15:49.117Z,53.09
2024-01-30T15:18:17.114Z,53.03
2024-01-30T15:20:44.741Z,53.86
2024-01-30T15:23:11.668Z,53.14
2024-01-30T15:25:38.637Z,52.87
2024-01-30T15:28:06.902Z,52.45
2024-01-30T15:30:33.984Z,52.28
2024-01-30T15:33:01.055Z,51.79
2024-01-30T15:35:28.292Z,52.15
2024-01-30T15:37:55.104Z,51.66
2024-01-30T15:40:21.964Z,52.01
2024-01-30T15:42:49.175Z,51.95
2024-01-30T15:45:16.249Z,52.26
2024-01-30T15:47:44.212Z,51.98
2024-01-30T15:50:13.478Z,52.48
2024-01-30T15:52:40.544Z,53.25
2024-01-30T15:55:09.240Z,52.97
2024-01-30T15:57:36.183Z,52.95
2024-01-30T16:00:03.158Z,53.18
2024-01-30T16:02:30.825Z,53.21
2024-01-30T16:05:01.456Z,53.46
2024-01-30T16:07:28.620Z,53.44
2024-01-30T16:09:55.746Z,53.70
2024-01-30T16:12:22.666Z,53.59
2024-01-30T16:14:49.356Z,53.64
2024-01-30T16:17:16.123Z,53.63
2024-01-30T16:19:45.417Z,53.21
2024-01-30T16:22:12.263Z,53.24
2024-01-30T16:24:39.421Z,53.17
2024-01-30T16:27:06.265Z,52.84
2024-01-30T16:29:34.616Z,52.86
2024-01-30T16:32:03.456Z,52.78
2024-01-30T16:34:30.347Z,53.00
2024-01-30T16:36:57.532Z,52.87
2024-01-30T16:39:24.631Z,53.80
2024-01-30T16:41:51.614Z,53.88
2024-01-30T16:44:18.594Z,53.85
2024-01-30T16:46:45.470Z,53.90
2024-01-30T16:49:12.426Z,54.12
2024-01-30T16:51:39.302Z,54.33
2024-01-30T16:54:06.265Z,54.25
2024-01-30T16:56:33.306Z,54.58
2024-01-30T16:59:00.602Z,54.34
2024-01-30T17:01:27.398Z,54.76
2024-01-30T17:03:54.185Z,55.13
2024-01-30T17:06:20.943Z,55.02
2024-01-30T17:08:47.766Z,55.16
2024-01-30T17:11:14.781Z,55.16
2024-01-30T17:13:41.713Z,55.63
2024-01-30T17:16:08.492Z,55.56
2024-01-30T17:18:35.316Z,55.53
2024-01-30T17:21:01.979Z,55.65
2024-01-30T17:23:28.675Z,56.17
2024-01-30T17:25:56.211Z,56.65
2024-01-30T17:28:23.096Z,56.51
2024-01-30T17:30:50.023Z,57.22
2024-01-30T17:33:17.188Z,57.03
2024-01-30T17:35:44.182Z,57.25
2024-01-30T17:38:11.130Z,57.13
2024-01-30T17:40:37.962Z,57.53
2024-01-30T17:43:05.264Z,57.50
2024-01-30T17:45:32.741Z,57.21
2024-01-30T17:47:59.899Z,57.11
2024-01-30T17:50:27.083Z,56.78
2024-01-30T17:52:55.473Z,56.78
2024-01-30T17:55:22.744Z,56.92
2024-01-30T17:57:49.761Z,56.93
2024-01-30T18:00:19.601Z,56.49
2024-01-30T18:02:47.217Z,56.14
2024-01-30T18:05:14.685Z,55.95
2024-01-30T18:07:42.109Z,55.73
2024-01-30T18:10:09.851Z,56.09
2024-01-30T18:12:37.241Z,56.14
2024-01-30T18:15:05.769Z,56.12
2024-01-30T18:17:32.976Z,56.19
2024-01-30T18:20:00.723Z,56.23
2024-01-30T18:22:28.148Z,55.99
2024-01-30T18:24:55.005Z,56.13
2024-01-30T18:27:22.895Z,56.10
2024-01-30T18:29:52.845Z,55.79
2024-01-30T18:32:20.346Z,55.49
2024-01-30T18:34:47.585Z,56.11
2024-01-30T18:37:14.800Z,55.54
2024-01-30T18:39:44.274Z,56.10
2024-01-30T18:42:11.172Z,55.41
2024-01-30T18:44:37.971Z,55.97
2024-01-30T18:47:05.569Z,55.79
2024-01-30T18:49:32.469Z,55.96
2024-01-30T18:52:04.562Z,55.86
2024-01-30T18:54:31.276Z,55.86
2024-01-30T18:56:58.291Z,56.20
2024-01-30T18:59:25.041Z,56.50
2024-01-30T19:01:52.094Z,56.42
2024-01-30T19:04:19.392Z,56.53
2024-01-30T19:06:47.057Z,56.28
2024-01-30T19:09:13.865Z,56.39
2024-01-30T19:11:41.059Z,56.71
2024-01-30T19:14:08.029Z,56.80
2024-01-30T19:16:35.276Z,56.59
2024-01-30T19:19:06.649Z,57.05
2024-01-30T19:21:34.259Z,56.64
2024-01-30T19:24:02.192Z,56.77
2024-01-30T19:26:28.932Z,57.09
2024-01-30T19:28:55.723Z,57.10
2024-01-30T19:31:24.986Z,57.60
2024-01-30T19:33:52.104Z,57.83
2024-01-30T19:36:18.965Z,57.49
2024-01-30T19:38:48.245Z,57.39
2024-01-30T19:41:15.783Z,57.54
2024-01-30T19:43:42.562Z,57.63
2024-01-30T19:46:10.902Z,58.48
2024-01-30T19:48:37.769Z,58.47
2024-01-30T19:51:04.988Z,58.43
2024-01-30T19:53:33.731Z,58.25
2024-01-30T19:56:01.157Z,58.65
2024-01-30T19:58:28.577Z,58.60
2024-01-30T20:00:55.509Z,58.48
2024-01-30T20:03:22.378Z,58.73
2024-01-30T20:05:49.638Z,58.80
2024-01-30T20:08:17.140Z,58.94
2024-01-30T20:10:44.981Z,58.89
2024-01-30T20:13:12.119Z,59.39
2024-01-30T20:15:39.042Z,59.93
2024-01-30T20:18:06.562Z,59.71
2024-01-30T20:20:33.369Z,59.58
2024-01-30T20:23:01.017Z,59.53
2024-01-30T20:25:28.035Z,59.79
2024-01-30T20:27:56.263Z,59.95
2024-01-30T20:30:24.020Z,59.73
2024-01-30T20:32:53.473Z,59.81
2024-01-30T20:35:21.320Z,59.98
2024-01-30T20:37:50.548Z,59.98
2024-01-30T20:40:17.983Z,59.90
2024-01-30T20:42:45.526Z,59.94
2024-01-30T20:45:12.298Z,60.06
2024-01-30T20:47:39.514Z,60.65
2024-01-30T20:50:06.896Z,60.93
2024-01-30T20:52:37.007Z,61.18
2024-01-30T20:55:04.128Z,61.25
2024-01-30T20:57:30.906Z,61.22
2024-01-30T20:59:57.637Z,60.72
2024-01-30T21:02:24.430Z,61.08
2024-01-30T21:04:51.762Z,61.41
2024-01-30T21:07:20.868Z,62.50
2024-01-30T21:09:51.637Z,63.32
2024-01-30T21:12:18.489Z,62.99
2024-01-30T21:14:45.386Z,63.03
2024-01-30T21:17:12.574Z,62.55
2024-01-30T21:19:39.962Z,62.72
2024-01-30T21:22:06.861Z,62.66
2024-01-30T21:24:33.632Z,62.35
2024-01-30T21:27:00.338Z,62.29
2024-01-30T21:29:28.000Z,61.93
2024-01-30T21:31:55.194Z,61.71
2024-01-30T21:34:24.698Z,61.94
2024-01-30T21:36:52.305Z,61.90
2024-01-30T21:39:19.268Z,62.13
2024-01-30T21:41:46.623Z,61.83
2024-01-30T21:44:13.627Z,61.98
2024-01-30T21:46:40.671Z,61.97
2024-01-30T21:49:07.645Z,61.95
2024-01-30T21:51:34.590Z,61.60
2024-01-30T21:54:01.540Z,62.04
2024-01-30T21:56:28.265Z,62.29
2024-01-30T21:58:55.008Z,63.53
2024-01-30T22:01:23.455Z,63.81
2024-01-30T22:03:51.998Z,67.24
2024-01-30T22:06:21.207Z,68.25
2024-01-30T22:08:48.473Z,66.71
2024-01-30T22:11:15.587Z,65.76
2024-01-30T22:13:42.545Z,65.24
2024-01-30T22:16:09.397Z,64.98
2024-01-30T22:18:36.381Z,64.51
2024-01-30T22:21:08.980Z,63.88
2024-01-30T22:23:36.453Z,63.78
2024-01-30T22:26:03.561Z,63.41
2024-01-30T22:28:30.352Z,63.33
2024-01-30T22:30:57.410Z,63.33
2024-01-30T22:33:24.909Z,63.14
2024-01-30T22:35:51.755Z,63.00
2024-01-30T22:38:19.663Z,62.82
2024-01-30T22:40:46.616Z,63.08
2024-01-30T22:43:14.034Z,62.64
2024-01-30T22:45:41.483Z,62.91
2024-01-30T22:48:08.717Z,62.94
2024-01-30T22:50:35.570Z,62.67
2024-01-30T22:53:02.541Z,62.81
2024-01-30T22:55:29.284Z,63.57
2024-01-30T22:57:56.134Z,63.56
2024-01-30T23:00:29.821Z,63.73
2024-01-30T23:02:58.024Z,63.63
2024-01-30T23:05:25.567Z,64.11
2024-01-30T23:07:52.820Z,64.02
2024-01-30T23:10:21.016Z,63.95
2024-01-30T23:12:48.044Z,63.75
2024-01-30T23:15:14.816Z,63.77
2024-01-30T23:17:42.376Z,63.57
2024-01-30T23:20:09.587Z,63.70
2024-01-30T23:22:37.836Z,63.84
2024-01-30T23:25:05.791Z,64.03
2024-01-30T23:27:34.042Z,64.09
2024-01-30T23:30:00.919Z,64.39
2024-01-30T23:32:34.841Z,64.23
2024-01-30T23:35:07.457Z,63.91
2024-01-30T23:37:35.816Z,63.76
2024-01-30T23:40:02.727Z,63.86
2024-01-30T23:42:29.527Z,64.03
2024-01-30T23:44:56.345Z,63.81
2024-01-30T23:47:23.140Z,64.22
2024-01-30T23:49:50.156Z,64.56
2024-01-30T23:52:16.999Z,64.47
2024-01-30T23:54:43.768Z,64.43
2024-01-30T23:57:10.469Z,64.32
2024-01-30T23:59:37.992Z,65.25
